sensor_id;sensor_type;location;lat;lon;timestamp;P1;durP1;ratioP1;P2;durP2;ratioP2
16828;SDS011;8531;48.078;11.968;2023-07-13T00:02:14;2.60;;;1.83;;
16828;SDS011;8531;48.078;11.968;2023-07-13T00:04:40;3.97;;;1.98;;
16828;SDS011;8531;48.078;11.968;2023-07-13T00:07:06;2.60;;;1.67;;
16828;SDS011;8531;48.078;11.968;2023-07-13T00:09:33;4.25;;;1.67;;
16828;SDS011;8531;48.078;11.968;2023-07-13T00:11:59;1.67;;;1.40;;
16828;SDS011;8531;48.078;11.968;2023-07-13T00:14:25;2.47;;;1.77;;
16828;SDS011;8531;48.078;11.968;2023-07-13T00:16:51;3.22;;;1.77;;
16828;SDS011;8531;48.078;11.968;2023-07-13T00:19:17;2.53;;;1.65;;
16828;SDS011;8531;48.078;11.968;2023-07-13T00:21:43;2.55;;;1.60;;
16828;SDS011;8531;48.078;11.968;2023-07-13T00:24:11;1.92;;;1.35;;
16828;SDS011;8531;48.078;11.968;2023-07-13T00:26:41;3.35;;;1.83;;
16828;SDS011;8531;48.078;11.968;2023-07-13T00:29:10;2.88;;;1.77;;
16828;SDS011;8531;48.078;11.968;2023-07-13T00:31:36;1.77;;;1.20;;
16828;SDS011;8531;48.078;11.968;2023-07-13T00:34:02;2.38;;;1.40;;
16828;SDS011;8531;48.078;11.968;2023-07-13T00:36:29;1.63;;;1.20;;
16828;SDS011;8531;48.078;11.968;2023-07-13T00:38:56;2.13;;;1.67;;
16828;SDS011;8531;48.078;11.968;2023-07-13T00:41:21;1.50;;;1.20;;
16828;SDS011;8531;48.078;11.968;2023-07-13T00:43:47;2.70;;;1.60;;
16828;SDS011;8531;48.078;11.968;2023-07-13T00:46:16;2.30;;;1.35;;
16828;SDS011;8531;48.078;11.968;2023-07-13T00:48:48;1.40;;;1.30;;
16828;SDS011;8531;48.078;11.968;2023-07-13T00:51:15;3.08;;;1.35;;
16828;SDS011;8531;48.078;11.968;2023-07-13T00:53:46;1.58;;;1.38;;
16828;SDS011;8531;48.078;11.968;2023-07-13T00:56:11;1.60;;;1.40;;
16828;SDS011;8531;48.078;11.968;2023-07-13T00:58:38;2.45;;;1.40;;
16828;SDS011;8531;48.078;11.968;2023-07-13T01:01:04;2.60;;;1.50;;
16828;SDS011;8531;48.078;11.968;2023-07-13T01:03:29;3.05;;;1.35;;
16828;SDS011;8531;48.078;11.968;2023-07-13T01:05:55;1.63;;;1.38;;
16828;SDS011;8531;48.078;11.968;2023-07-13T01:08:21;1.40;;;1.13;;
16828;SDS011;8531;48.078;11.968;2023-07-13T01:10:51;2.63;;;1.40;;
16828;SDS011;8531;48.078;11.968;2023-07-13T01:13:18;2.30;;;1.58;;
16828;SDS011;8531;48.078;11.968;2023-07-13T01:15:45;4.95;;;1.60;;
16828;SDS011;8531;48.078;11.968;2023-07-13T01:18:14;2.10;;;1.30;;
16828;SDS011;8531;48.078;11.968;2023-07-13T01:20:46;2.30;;;1.50;;
16828;SDS011;8531;48.078;11.968;2023-07-13T01:23:23;3.13;;;1.33;;
16828;SDS011;8531;48.078;11.968;2023-07-13T01:25:49;1.77;;;1.30;;
16828;SDS011;8531;48.078;11.968;2023-07-13T01:28:16;2.42;;;1.60;;
16828;SDS011;8531;48.078;11.968;2023-07-13T01:30:42;2.83;;;1.88;;
16828;SDS011;8531;48.078;11.968;2023-07-13T01:33:11;4.35;;;1.73;;
16828;SDS011;8531;48.078;11.968;2023-07-13T01:35:41;2.55;;;1.50;;
16828;SDS011;8531;48.078;11.968;2023-07-13T01:38:08;4.00;;;1.90;;
16828;SDS011;8531;48.078;11.968;2023-07-13T01:40:35;1.88;;;1.35;;
16828;SDS011;8531;48.078;11.968;2023-07-13T01:43:02;1.52;;;1.15;;
16828;SDS011;8531;48.078;11.968;2023-07-13T01:45:28;1.50;;;1.40;;
16828;SDS011;8531;48.078;11.968;2023-07-13T01:47:53;2.85;;;1.50;;
16828;SDS011;8531;48.078;11.968;2023-07-13T01:50:19;2.58;;;1.75;;
16828;SDS011;8531;48.078;11.968;2023-07-13T01:52:45;2.22;;;1.30;;
16828;SDS011;8531;48.078;11.968;2023-07-13T01:55:11;2.35;;;1.70;;
16828;SDS011;8531;48.078;11.968;2023-07-13T01:57:36;2.83;;;1.52;;
16828;SDS011;8531;48.078;11.968;2023-07-13T02:00:03;2.35;;;1.50;;
16828;SDS011;8531;48.078;11.968;2023-07-13T02:02:30;2.53;;;1.42;;
16828;SDS011;8531;48.078;11.968;2023-07-13T02:04:56;2.60;;;1.35;;
16828;SDS011;8531;48.078;11.968;2023-07-13T02:07:21;2.13;;;1.33;;
16828;SDS011;8531;48.078;11.968;2023-07-13T02:09:47;2.88;;;1.50;;
16828;SDS011;8531;48.078;11.968;2023-07-13T02:12:13;2.65;;;1.65;;
16828;SDS011;8531;48.078;11.968;2023-07-13T02:14:38;3.25;;;1.95;;
16828;SDS011;8531;48.078;11.968;2023-07-13T02:17:04;2.78;;;1.70;;
16828;SDS011;8531;48.078;11.968;2023-07-13T02:19:30;3.83;;;1.50;;
16828;SDS011;8531;48.078;11.968;2023-07-13T02:21:56;3.25;;;1.92;;
16828;SDS011;8531;48.078;11.968;2023-07-13T02:24:22;1.80;;;1.63;;
16828;SDS011;8531;48.078;11.968;2023-07-13T02:26:47;2.08;;;1.60;;
16828;SDS011;8531;48.078;11.968;2023-07-13T02:29:13;2.53;;;1.40;;
16828;SDS011;8531;48.078;11.968;2023-07-13T02:31:39;3.40;;;1.52;;
16828;SDS011;8531;48.078;11.968;2023-07-13T02:34:04;3.08;;;1.25;;
16828;SDS011;8531;48.078;11.968;2023-07-13T02:36:30;2.05;;;1.40;;
16828;SDS011;8531;48.078;11.968;2023-07-13T02:38:57;3.65;;;1.30;;
16828;SDS011;8531;48.078;11.968;2023-07-13T02:41:26;3.40;;;1.40;;
16828;SDS011;8531;48.078;11.968;2023-07-13T02:43:52;1.88;;;1.40;;
16828;SDS011;8531;48.078;11.968;2023-07-13T02:46:18;2.25;;;1.33;;
16828;SDS011;8531;48.078;11.968;2023-07-13T02:48:44;1.80;;;1.08;;
16828;SDS011;8531;48.078;11.968;2023-07-13T02:51:10;2.75;;;1.40;;
16828;SDS011;8531;48.078;11.968;2023-07-13T02:53:36;3.00;;;2.40;;
16828;SDS011;8531;48.078;11.968;2023-07-13T02:56:02;3.78;;;1.40;;
16828;SDS011;8531;48.078;11.968;2023-07-13T02:58:29;4.00;;;1.50;;
16828;SDS011;8531;48.078;11.968;2023-07-13T03:00:55;3.42;;;1.70;;
16828;SDS011;8531;48.078;11.968;2023-07-13T03:03:22;1.75;;;1.40;;
16828;SDS011;8531;48.078;11.968;2023-07-13T03:05:57;2.88;;;1.45;;
16828;SDS011;8531;48.078;11.968;2023-07-13T03:08:25;2.25;;;1.40;;
16828;SDS011;8531;48.078;11.968;2023-07-13T03:10:58;3.13;;;1.48;;
16828;SDS011;8531;48.078;11.968;2023-07-13T03:13:36;2.40;;;1.30;;
16828;SDS011;8531;48.078;11.968;2023-07-13T03:16:02;2.90;;;1.60;;
16828;SDS011;8531;48.078;11.968;2023-07-13T03:18:28;5.38;;;1.70;;
16828;SDS011;8531;48.078;11.968;2023-07-13T03:20:55;2.55;;;1.52;;
16828;SDS011;8531;48.078;11.968;2023-07-13T03:23:21;2.72;;;1.70;;
16828;SDS011;8531;48.078;11.968;2023-07-13T03:25:48;4.55;;;1.58;;
16828;SDS011;8531;48.078;11.968;2023-07-13T03:28:14;1.70;;;1.38;;
16828;SDS011;8531;48.078;11.968;2023-07-13T03:30:40;3.88;;;1.52;;
16828;SDS011;8531;48.078;11.968;2023-07-13T03:33:07;1.73;;;1.58;;
16828;SDS011;8531;48.078;11.968;2023-07-13T03:35:33;2.10;;;1.90;;
16828;SDS011;8531;48.078;11.968;2023-07-13T03:38:00;1.73;;;1.45;;
16828;SDS011;8531;48.078;11.968;2023-07-13T03:40:27;4.40;;;2.05;;
16828;SDS011;8531;48.078;11.968;2023-07-13T03:42:52;2.30;;;1.70;;
16828;SDS011;8531;48.078;11.968;2023-07-13T03:45:18;2.40;;;1.83;;
16828;SDS011;8531;48.078;11.968;2023-07-13T03:47:44;2.95;;;1.70;;
16828;SDS011;8531;48.078;11.968;2023-07-13T03:50:10;3.35;;;1.98;;
16828;SDS011;8531;48.078;11.968;2023-07-13T03:52:36;2.60;;;1.90;;
16828;SDS011;8531;48.078;11.968;2023-07-13T03:55:02;3.20;;;2.20;;
16828;SDS011;8531;48.078;11.968;2023-07-13T03:57:28;3.47;;;2.20;;
16828;SDS011;8531;48.078;11.968;2023-07-13T03:59:54;3.20;;;2.55;;
16828;SDS011;8531;48.078;11.968;2023-07-13T04:02:19;4.00;;;2.28;;
16828;SDS011;8531;48.078;11.968;2023-07-13T04:04:45;3.17;;;2.50;;
16828;SDS011;8531;48.078;11.968;2023-07-13T04:07:11;4.30;;;2.33;;
16828;SDS011;8531;48.078;11.968;2023-07-13T04:09:37;6.15;;;5.35;;
16828;SDS011;8531;48.078;11.968;2023-07-13T04:12:03;2.65;;;2.20;;
16828;SDS011;8531;48.078;11.968;2023-07-13T04:14:29;3.95;;;2.20;;
16828;SDS011;8531;48.078;11.968;2023-07-13T04:16:55;4.45;;;2.38;;
16828;SDS011;8531;48.078;11.968;2023-07-13T04:19:21;4.28;;;1.90;;
16828;SDS011;8531;48.078;11.968;2023-07-13T04:21:46;2.42;;;1.90;;
16828;SDS011;8531;48.078;11.968;2023-07-13T04:24:12;2.30;;;2.10;;
16828;SDS011;8531;48.078;11.968;2023-07-13T04:26:38;3.25;;;2.08;;
16828;SDS011;8531;48.078;11.968;2023-07-13T04:29:04;4.43;;;2.20;;
16828;SDS011;8531;48.078;11.968;2023-07-13T04:31:31;2.13;;;1.90;;
16828;SDS011;8531;48.078;11.968;2023-07-13T04:33:58;2.33;;;2.00;;
16828;SDS011;8531;48.078;11.968;2023-07-13T04:36:24;5.85;;;2.80;;
16828;SDS011;8531;48.078;11.968;2023-07-13T04:38:53;3.35;;;2.35;;
16828;SDS011;8531;48.078;11.968;2023-07-13T04:41:19;4.68;;;2.28;;
16828;SDS011;8531;48.078;11.968;2023-07-13T04:43:46;3.15;;;2.70;;
16828;SDS011;8531;48.078;11.968;2023-07-13T04:46:12;2.75;;;2.17;;
16828;SDS011;8531;48.078;11.968;2023-07-13T04:48:39;3.30;;;2.08;;
16828;SDS011;8531;48.078;11.968;2023-07-13T04:51:05;3.30;;;2.33;;
16828;SDS011;8531;48.078;11.968;2023-07-13T04:53:31;5.40;;;2.53;;
16828;SDS011;8531;48.078;11.968;2023-07-13T04:55:59;3.08;;;2.05;;
16828;SDS011;8531;48.078;11.968;2023-07-13T04:58:25;3.55;;;2.10;;
16828;SDS011;8531;48.078;11.968;2023-07-13T05:00:52;4.00;;;2.40;;
16828;SDS011;8531;48.078;11.968;2023-07-13T05:03:18;2.47;;;2.03;;
16828;SDS011;8531;48.078;11.968;2023-07-13T05:05:53;4.03;;;2.05;;
16828;SDS011;8531;48.078;11.968;2023-07-13T05:08:22;2.50;;;1.98;;
16828;SDS011;8531;48.078;11.968;2023-07-13T05:10:48;4.43;;;2.75;;
16828;SDS011;8531;48.078;11.968;2023-07-13T05:13:15;6.72;;;2.47;;
16828;SDS011;8531;48.078;11.968;2023-07-13T05:15:40;4.57;;;2.55;;
16828;SDS011;8531;48.078;11.968;2023-07-13T05:18:06;2.47;;;2.13;;
16828;SDS011;8531;48.078;11.968;2023-07-13T05:20:32;4.07;;;2.47;;
16828;SDS011;8531;48.078;11.968;2023-07-13T05:22:57;3.17;;;2.03;;
16828;SDS011;8531;48.078;11.968;2023-07-13T05:25:23;4.53;;;3.50;;
16828;SDS011;8531;48.078;11.968;2023-07-13T05:27:48;5.63;;;5.13;;
16828;SDS011;8531;48.078;11.968;2023-07-13T05:30:14;3.63;;;2.83;;
16828;SDS011;8531;48.078;11.968;2023-07-13T05:32:40;9.15;;;6.15;;
16828;SDS011;8531;48.078;11.968;2023-07-13T05:35:06;3.47;;;3.17;;
16828;SDS011;8531;48.078;11.968;2023-07-13T05:37:32;3.05;;;1.95;;
16828;SDS011;8531;48.078;11.968;2023-07-13T05:39:58;3.75;;;2.80;;
16828;SDS011;8531;48.078;11.968;2023-07-13T05:42:24;2.83;;;2.45;;
16828;SDS011;8531;48.078;11.968;2023-07-13T05:44:49;3.63;;;2.40;;
16828;SDS011;8531;48.078;11.968;2023-07-13T05:47:15;2.78;;;2.47;;
16828;SDS011;8531;48.078;11.968;2023-07-13T05:49:41;3.40;;;2.45;;
16828;SDS011;8531;48.078;11.968;2023-07-13T05:52:06;5.25;;;1.95;;
16828;SDS011;8531;48.078;11.968;2023-07-13T05:54:32;7.28;;;4.15;;
16828;SDS011;8531;48.078;11.968;2023-07-13T05:56:58;4.00;;;1.80;;
16828;SDS011;8531;48.078;11.968;2023-07-13T05:59:24;2.72;;;1.65;;
16828;SDS011;8531;48.078;11.968;2023-07-13T06:01:50;2.92;;;1.92;;
16828;SDS011;8531;48.078;11.968;2023-07-13T06:04:17;3.75;;;1.90;;
16828;SDS011;8531;48.078;11.968;2023-07-13T06:06:43;3.92;;;1.83;;
16828;SDS011;8531;48.078;11.968;2023-07-13T06:09:09;2.60;;;1.95;;
16828;SDS011;8531;48.078;11.968;2023-07-13T06:11:35;5.28;;;2.70;;
16828;SDS011;8531;48.078;11.968;2023-07-13T06:14:00;2.20;;;1.75;;
16828;SDS011;8531;48.078;11.968;2023-07-13T06:16:26;2.63;;;1.80;;
16828;SDS011;8531;48.078;11.968;2023-07-13T06:18:52;3.58;;;2.00;;
16828;SDS011;8531;48.078;11.968;2023-07-13T06:21:18;4.95;;;2.00;;
16828;SDS011;8531;48.078;11.968;2023-07-13T06:23:45;2.47;;;1.63;;
16828;SDS011;8531;48.078;11.968;2023-07-13T06:26:15;2.95;;;2.30;;
16828;SDS011;8531;48.078;11.968;2023-07-13T06:28:41;6.00;;;2.58;;
16828;SDS011;8531;48.078;11.968;2023-07-13T06:31:08;2.55;;;1.70;;
16828;SDS011;8531;48.078;11.968;2023-07-13T06:33:35;3.55;;;1.73;;
16828;SDS011;8531;48.078;11.968;2023-07-13T06:36:01;3.33;;;1.80;;
16828;SDS011;8531;48.078;11.968;2023-07-13T06:38:28;2.95;;;1.30;;
16828;SDS011;8531;48.078;11.968;2023-07-13T06:40:53;1.83;;;1.48;;
16828;SDS011;8531;48.078;11.968;2023-07-13T06:43:19;3.65;;;1.70;;
16828;SDS011;8531;48.078;11.968;2023-07-13T06:45:46;2.00;;;1.63;;
16828;SDS011;8531;48.078;11.968;2023-07-13T06:48:17;2.25;;;1.52;;
16828;SDS011;8531;48.078;11.968;2023-07-13T06:50:44;2.60;;;2.08;;
16828;SDS011;8531;48.078;11.968;2023-07-13T06:53:10;2.95;;;1.60;;
16828;SDS011;8531;48.078;11.968;2023-07-13T06:55:37;5.35;;;2.10;;
16828;SDS011;8531;48.078;11.968;2023-07-13T06:58:03;3.20;;;1.80;;
16828;SDS011;8531;48.078;11.968;2023-07-13T07:00:29;3.28;;;2.20;;
16828;SDS011;8531;48.078;11.968;2023-07-13T07:02:55;1.67;;;1.50;;
16828;SDS011;8531;48.078;11.968;2023-07-13T07:05:21;2.05;;;1.60;;
16828;SDS011;8531;48.078;11.968;2023-07-13T07:07:50;2.65;;;1.70;;
16828;SDS011;8531;48.078;11.968;2023-07-13T07:10:16;5.15;;;1.65;;
16828;SDS011;8531;48.078;11.968;2023-07-13T07:12:43;2.08;;;1.65;;
16828;SDS011;8531;48.078;11.968;2023-07-13T07:15:08;1.80;;;1.55;;
16828;SDS011;8531;48.078;11.968;2023-07-13T07:17:35;5.13;;;1.73;;
16828;SDS011;8531;48.078;11.968;2023-07-13T07:20:00;3.78;;;1.80;;
16828;SDS011;8531;48.078;11.968;2023-07-13T07:22:26;4.03;;;1.73;;
16828;SDS011;8531;48.078;11.968;2023-07-13T07:24:52;3.75;;;2.13;;
16828;SDS011;8531;48.078;11.968;2023-07-13T07:27:19;3.25;;;1.75;;
16828;SDS011;8531;48.078;11.968;2023-07-13T07:29:45;6.07;;;1.90;;
16828;SDS011;8531;48.078;11.968;2023-07-13T07:32:11;5.80;;;2.83;;
16828;SDS011;8531;48.078;11.968;2023-07-13T07:34:36;2.25;;;1.83;;
16828;SDS011;8531;48.078;11.968;2023-07-13T07:37:02;6.07;;;2.05;;
16828;SDS011;8531;48.078;11.968;2023-07-13T07:39:29;5.57;;;1.98;;
16828;SDS011;8531;48.078;11.968;2023-07-13T07:41:54;5.38;;;2.13;;
16828;SDS011;8531;48.078;11.968;2023-07-13T07:44:20;2.13;;;1.90;;
16828;SDS011;8531;48.078;11.968;2023-07-13T07:46:46;4.57;;;1.85;;
16828;SDS011;8531;48.078;11.968;2023-07-13T07:49:12;4.75;;;1.83;;
16828;SDS011;8531;48.078;11.968;2023-07-13T07:51:38;3.20;;;1.90;;
16828;SDS011;8531;48.078;11.968;2023-07-13T07:54:04;3.42;;;1.58;;
16828;SDS011;8531;48.078;11.968;2023-07-13T07:56:30;3.13;;;1.80;;
16828;SDS011;8531;48.078;11.968;2023-07-13T07:58:56;5.10;;;2.60;;
16828;SDS011;8531;48.078;11.968;2023-07-13T08:01:22;2.45;;;2.05;;
16828;SDS011;8531;48.078;11.968;2023-07-13T08:03:48;2.72;;;1.77;;
16828;SDS011;8531;48.078;11.968;2023-07-13T08:06:13;4.22;;;2.55;;
16828;SDS011;8531;48.078;11.968;2023-07-13T08:08:39;4.20;;;2.33;;
16828;SDS011;8531;48.078;11.968;2023-07-13T08:11:05;3.70;;;2.10;;
16828;SDS011;8531;48.078;11.968;2023-07-13T08:13:33;2.00;;;1.38;;
16828;SDS011;8531;48.078;11.968;2023-07-13T08:15:59;3.97;;;1.90;;
16828;SDS011;8531;48.078;11.968;2023-07-13T08:18:24;2.20;;;2.00;;
16828;SDS011;8531;48.078;11.968;2023-07-13T08:20:50;3.03;;;1.73;;
16828;SDS011;8531;48.078;11.968;2023-07-13T08:23:16;3.72;;;1.70;;
16828;SDS011;8531;48.078;11.968;2023-07-13T08:25:42;1.98;;;1.50;;
16828;SDS011;8531;48.078;11.968;2023-07-13T08:28:15;2.05;;;1.75;;
16828;SDS011;8531;48.078;11.968;2023-07-13T08:30:40;6.43;;;1.83;;
16828;SDS011;8531;48.078;11.968;2023-07-13T08:33:06;4.65;;;2.05;;
16828;SDS011;8531;48.078;11.968;2023-07-13T08:35:31;3.80;;;2.10;;
16828;SDS011;8531;48.078;11.968;2023-07-13T08:37:57;4.82;;;2.40;;
16828;SDS011;8531;48.078;11.968;2023-07-13T08:40:24;3.42;;;2.17;;
16828;SDS011;8531;48.078;11.968;2023-07-13T08:42:53;3.80;;;1.95;;
16828;SDS011;8531;48.078;11.968;2023-07-13T08:45:57;4.75;;;2.33;;
16828;SDS011;8531;48.078;11.968;2023-07-13T08:48:21;3.03;;;2.60;;
16828;SDS011;8531;48.078;11.968;2023-07-13T08:53:51;4.32;;;2.35;;
16828;SDS011;8531;48.078;11.968;2023-07-13T08:56:23;4.40;;;2.70;;
16828;SDS011;8531;48.078;11.968;2023-07-13T08:58:58;4.55;;;2.50;;
16828;SDS011;8531;48.078;11.968;2023-07-13T09:01:33;5.00;;;2.53;;
16828;SDS011;8531;48.078;11.968;2023-07-13T09:04:16;4.00;;;2.50;;
16828;SDS011;8531;48.078;11.968;2023-07-13T09:09:26;7.65;;;2.30;;
16828;SDS011;8531;48.078;11.968;2023-07-13T09:12:22;4.70;;;2.05;;
16828;SDS011;8531;48.078;11.968;2023-07-13T09:15:43;5.18;;;2.42;;
16828;SDS011;8531;48.078;11.968;2023-07-13T09:18:10;6.15;;;2.35;;
16828;SDS011;8531;48.078;11.968;2023-07-13T09:20:42;5.00;;;2.92;;
16828;SDS011;8531;48.078;11.968;2023-07-13T09:23:15;4.32;;;2.63;;
16828;SDS011;8531;48.078;11.968;2023-07-13T09:25:45;6.15;;;2.83;;
16828;SDS011;8531;48.078;11.968;2023-07-13T09:28:19;3.53;;;2.67;;
16828;SDS011;8531;48.078;11.968;2023-07-13T09:33:28;4.97;;;2.85;;
16828;SDS011;8531;48.078;11.968;2023-07-13T09:35:56;7.00;;;3.17;;
16828;SDS011;8531;48.078;11.968;2023-07-13T09:38:27;5.05;;;2.95;;
16828;SDS011;8531;48.078;11.968;2023-07-13T09:44:00;3.28;;;2.47;;
16828;SDS011;8531;48.078;11.968;2023-07-13T09:46:26;4.28;;;3.47;;
16828;SDS011;8531;48.078;11.968;2023-07-13T09:48:52;3.38;;;2.35;;
16828;SDS011;8531;48.078;11.968;2023-07-13T09:51:17;4.25;;;2.38;;
16828;SDS011;8531;48.078;11.968;2023-07-13T09:53:43;3.10;;;2.03;;
16828;SDS011;8531;48.078;11.968;2023-07-13T09:56:19;6.60;;;2.33;;
16828;SDS011;8531;48.078;11.968;2023-07-13T09:58:51;4.47;;;2.17;;
16828;SDS011;8531;48.078;11.968;2023-07-13T10:01:30;6.97;;;2.58;;
16828;SDS011;8531;48.078;11.968;2023-07-13T10:03:58;7.57;;;2.75;;
16828;SDS011;8531;48.078;11.968;2023-07-13T10:06:24;7.95;;;2.60;;
16828;SDS011;8531;48.078;11.968;2023-07-13T10:08:51;2.60;;;2.10;;
16828;SDS011;8531;48.078;11.968;2023-07-13T10:11:19;5.28;;;2.20;;
16828;SDS011;8531;48.078;11.968;2023-07-13T10:16:15;5.22;;;2.03;;
16828;SDS011;8531;48.078;11.968;2023-07-13T10:21:47;3.72;;;2.10;;
16828;SDS011;8531;48.078;11.968;2023-07-13T10:24:21;3.83;;;1.70;;
16828;SDS011;8531;48.078;11.968;2023-07-13T10:32:58;2.47;;;1.90;;
16828;SDS011;8531;48.078;11.968;2023-07-13T10:35:26;4.22;;;1.77;;
16828;SDS011;8531;48.078;11.968;2023-07-13T10:38:03;3.92;;;1.52;;
16828;SDS011;8531;48.078;11.968;2023-07-13T10:40:40;5.18;;;1.85;;
16828;SDS011;8531;48.078;11.968;2023-07-13T10:43:16;2.50;;;1.85;;
16828;SDS011;8531;48.078;11.968;2023-07-13T10:45:45;5.68;;;2.47;;
16828;SDS011;8531;48.078;11.968;2023-07-13T10:48:15;4.50;;;2.00;;
16828;SDS011;8531;48.078;11.968;2023-07-13T10:50:43;4.53;;;2.35;;
16828;SDS011;8531;48.078;11.968;2023-07-13T10:53:30;3.80;;;2.10;;
16828;SDS011;8531;48.078;11.968;2023-07-13T10:55:59;7.07;;;3.05;;
16828;SDS011;8531;48.078;11.968;2023-07-13T11:03:47;5.45;;;2.28;;
16828;SDS011;8531;48.078;11.968;2023-07-13T11:09:07;3.42;;;2.25;;
16828;SDS011;8531;48.078;11.968;2023-07-13T11:12:09;2.78;;;2.00;;
16828;SDS011;8531;48.078;11.968;2023-07-13T11:20:08;2.17;;;1.52;;
16828;SDS011;8531;48.078;11.968;2023-07-13T11:27:46;2.03;;;1.60;;
16828;SDS011;8531;48.078;11.968;2023-07-13T11:33:11;7.15;;;1.58;;
16828;SDS011;8531;48.078;11.968;2023-07-13T11:38:29;3.53;;;1.40;;
16828;SDS011;8531;48.078;11.968;2023-07-13T11:41:45;6.20;;;1.67;;
16828;SDS011;8531;48.078;11.968;2023-07-13T11:43:55;3.10;;;1.30;;
16828;SDS011;8531;48.078;11.968;2023-07-13T11:46:27;2.17;;;1.30;;
16828;SDS011;8531;48.078;11.968;2023-07-13T11:48:53;6.53;;;1.67;;
16828;SDS011;8531;48.078;11.968;2023-07-13T11:51:27;4.50;;;1.65;;
16828;SDS011;8531;48.078;11.968;2023-07-13T11:53:56;3.58;;;1.40;;
16828;SDS011;8531;48.078;11.968;2023-07-13T11:56:40;3.35;;;1.48;;
16828;SDS011;8531;48.078;11.968;2023-07-13T11:59:07;4.13;;;1.92;;
16828;SDS011;8531;48.078;11.968;2023-07-13T12:01:40;4.85;;;1.77;;
16828;SDS011;8531;48.078;11.968;2023-07-13T12:04:13;5.43;;;1.50;;
16828;SDS011;8531;48.078;11.968;2023-07-13T12:06:54;2.50;;;1.13;;
16828;SDS011;8531;48.078;11.968;2023-07-13T12:09:29;5.20;;;1.88;;
16828;SDS011;8531;48.078;11.968;2023-07-13T12:11:56;2.55;;;1.35;;
16828;SDS011;8531;48.078;11.968;2023-07-13T12:14:24;3.92;;;1.92;;
16828;SDS011;8531;48.078;11.968;2023-07-13T12:16:51;3.22;;;1.45;;
16828;SDS011;8531;48.078;11.968;2023-07-13T12:19:20;4.70;;;1.58;;
16828;SDS011;8531;48.078;11.968;2023-07-13T12:21:47;2.85;;;1.65;;
16828;SDS011;8531;48.078;11.968;2023-07-13T12:24:15;2.10;;;1.48;;
16828;SDS011;8531;48.078;11.968;2023-07-13T12:26:50;3.40;;;1.90;;
16828;SDS011;8531;48.078;11.968;2023-07-13T12:29:27;3.47;;;1.27;;
16828;SDS011;8531;48.078;11.968;2023-07-13T12:31:53;2.95;;;1.30;;
16828;SDS011;8531;48.078;11.968;2023-07-13T12:34:22;2.47;;;1.40;;
16828;SDS011;8531;48.078;11.968;2023-07-13T12:36:59;6.45;;;1.90;;
16828;SDS011;8531;48.078;11.968;2023-07-13T12:44:57;2.97;;;1.48;;
16828;SDS011;8531;48.078;11.968;2023-07-13T12:47:28;8.20;;;1.92;;
16828;SDS011;8531;48.078;11.968;2023-07-13T12:49:55;3.67;;;1.80;;
16828;SDS011;8531;48.078;11.968;2023-07-13T12:52:27;3.17;;;1.30;;
16828;SDS011;8531;48.078;11.968;2023-07-13T12:54:56;5.93;;;1.50;;
16828;SDS011;8531;48.078;11.968;2023-07-13T12:57:28;3.22;;;1.70;;
16828;SDS011;8531;48.078;11.968;2023-07-13T12:59:54;6.28;;;1.67;;
16828;SDS011;8531;48.078;11.968;2023-07-13T13:02:30;2.03;;;1.42;;
16828;SDS011;8531;48.078;11.968;2023-07-13T13:04:59;4.22;;;1.65;;
16828;SDS011;8531;48.078;11.968;2023-07-13T13:07:26;2.80;;;1.40;;
16828;SDS011;8531;48.078;11.968;2023-07-13T13:09:52;5.97;;;1.70;;
16828;SDS011;8531;48.078;11.968;2023-07-13T13:12:21;2.63;;;1.52;;
16828;SDS011;8531;48.078;11.968;2023-07-13T13:14:49;4.03;;;1.60;;
16828;SDS011;8531;48.078;11.968;2023-07-13T13:17:22;3.45;;;1.85;;
16828;SDS011;8531;48.078;11.968;2023-07-13T13:19:55;2.40;;;1.38;;
16828;SDS011;8531;48.078;11.968;2023-07-13T13:22:22;3.17;;;1.50;;
16828;SDS011;8531;48.078;11.968;2023-07-13T13:24:48;1.92;;;1.17;;
16828;SDS011;8531;48.078;11.968;2023-07-13T13:27:18;3.03;;;1.50;;
16828;SDS011;8531;48.078;11.968;2023-07-13T13:29:47;3.80;;;1.65;;
16828;SDS011;8531;48.078;11.968;2023-07-13T13:32:16;2.30;;;1.55;;
16828;SDS011;8531;48.078;11.968;2023-07-13T13:34:42;5.97;;;1.73;;
16828;SDS011;8531;48.078;11.968;2023-07-13T13:37:11;2.63;;;1.30;;
16828;SDS011;8531;48.078;11.968;2023-07-13T13:39:45;1.73;;;1.35;;
16828;SDS011;8531;48.078;11.968;2023-07-13T13:42:12;4.35;;;1.48;;
16828;SDS011;8531;48.078;11.968;2023-07-13T13:44:38;4.75;;;1.60;;
16828;SDS011;8531;48.078;11.968;2023-07-13T13:47:07;2.55;;;1.30;;
16828;SDS011;8531;48.078;11.968;2023-07-13T13:49:59;3.45;;;1.30;;
16828;SDS011;8531;48.078;11.968;2023-07-13T13:52:26;3.97;;;1.42;;
16828;SDS011;8531;48.078;11.968;2023-07-13T13:54:51;3.08;;;1.92;;
16828;SDS011;8531;48.078;11.968;2023-07-13T13:57:24;3.53;;;1.63;;
16828;SDS011;8531;48.078;11.968;2023-07-13T13:59:53;3.30;;;1.42;;
16828;SDS011;8531;48.078;11.968;2023-07-13T14:02:22;2.40;;;1.50;;
16828;SDS011;8531;48.078;11.968;2023-07-13T14:04:58;3.85;;;1.30;;
16828;SDS011;8531;48.078;11.968;2023-07-13T14:07:26;2.63;;;2.15;;
16828;SDS011;8531;48.078;11.968;2023-07-13T14:09:55;2.08;;;1.40;;
16828;SDS011;8531;48.078;11.968;2023-07-13T14:12:23;1.52;;;1.13;;
16828;SDS011;8531;48.078;11.968;2023-07-13T14:14:53;5.63;;;1.38;;
16828;SDS011;8531;48.078;11.968;2023-07-13T14:17:19;2.55;;;1.55;;
16828;SDS011;8531;48.078;11.968;2023-07-13T14:19:50;4.57;;;1.50;;
16828;SDS011;8531;48.078;11.968;2023-07-13T14:22:21;1.75;;;1.00;;
16828;SDS011;8531;48.078;11.968;2023-07-13T14:24:49;1.65;;;1.25;;
16828;SDS011;8531;48.078;11.968;2023-07-13T14:27:16;2.13;;;1.33;;
16828;SDS011;8531;48.078;11.968;2023-07-13T14:29:42;4.93;;;1.33;;
16828;SDS011;8531;48.078;11.968;2023-07-13T14:32:09;2.60;;;1.40;;
16828;SDS011;8531;48.078;11.968;2023-07-13T14:34:37;1.95;;;1.13;;
16828;SDS011;8531;48.078;11.968;2023-07-13T14:37:03;2.13;;;1.13;;
16828;SDS011;8531;48.078;11.968;2023-07-13T14:39:29;2.47;;;1.20;;
16828;SDS011;8531;48.078;11.968;2023-07-13T14:41:56;4.63;;;1.55;;
16828;SDS011;8531;48.078;11.968;2023-07-13T14:44:26;4.72;;;1.40;;
16828;SDS011;8531;48.078;11.968;2023-07-13T14:46:59;3.83;;;1.60;;
16828;SDS011;8531;48.078;11.968;2023-07-13T14:49:38;3.85;;;1.55;;
16828;SDS011;8531;48.078;11.968;2023-07-13T14:52:13;2.97;;;1.40;;
16828;SDS011;8531;48.078;11.968;2023-07-13T14:54:43;4.78;;;1.30;;
16828;SDS011;8531;48.078;11.968;2023-07-13T14:57:12;2.47;;;1.10;;
16828;SDS011;8531;48.078;11.968;2023-07-13T14:59:39;4.03;;;1.20;;
16828;SDS011;8531;48.078;11.968;2023-07-13T15:02:15;3.25;;;1.17;;
16828;SDS011;8531;48.078;11.968;2023-07-13T15:04:57;2.90;;;1.30;;
16828;SDS011;8531;48.078;11.968;2023-07-13T15:07:22;3.13;;;1.23;;
16828;SDS011;8531;48.078;11.968;2023-07-13T15:09:49;2.72;;;1.70;;
16828;SDS011;8531;48.078;11.968;2023-07-13T15:12:18;7.15;;;1.27;;
16828;SDS011;8531;48.078;11.968;2023-07-13T15:14:45;3.63;;;1.20;;
16828;SDS011;8531;48.078;11.968;2023-07-13T15:17:36;1.90;;;1.33;;
16828;SDS011;8531;48.078;11.968;2023-07-13T15:20:26;1.73;;;1.20;;
16828;SDS011;8531;48.078;11.968;2023-07-13T15:22:52;2.33;;;1.27;;
16828;SDS011;8531;48.078;11.968;2023-07-13T15:25:19;1.77;;;1.17;;
16828;SDS011;8531;48.078;11.968;2023-07-13T15:27:49;4.53;;;1.60;;
16828;SDS011;8531;48.078;11.968;2023-07-13T15:30:15;1.67;;;0.80;;
16828;SDS011;8531;48.078;11.968;2023-07-13T15:32:43;2.40;;;1.02;;
16828;SDS011;8531;48.078;11.968;2023-07-13T15:35:13;2.70;;;1.10;;
16828;SDS011;8531;48.078;11.968;2023-07-13T15:37:44;2.08;;;1.33;;
16828;SDS011;8531;48.078;11.968;2023-07-13T15:40:11;4.07;;;0.90;;
16828;SDS011;8531;48.078;11.968;2023-07-13T15:42:38;4.10;;;1.30;;
16828;SDS011;8531;48.078;11.968;2023-07-13T15:45:14;2.08;;;1.00;;
16828;SDS011;8531;48.078;11.968;2023-07-13T15:47:42;3.10;;;1.00;;
16828;SDS011;8531;48.078;11.968;2023-07-13T15:50:16;2.15;;;1.30;;